< < Back
Terminal Aerodrome Forecast


Current Version              Previous Versions:   1  2  3  4  5  6  7  8  9  

Terminal Aerodrome Forecast

449
FTUS42 KCHS 300000 AAA
TAFSAV
TAF AMD
KSAV 300038Z 3001/3024 03008KT P6SM OVC005
      TEMPO 3001/3005 5SM -SHRADZ SCT006 OVC020
     FM300500 01006KT 6SM BR VCSH SCT003 OVC005
     FM301400 36007KT P6SM SCT009 OVC020
     FM301800 03010G15KT P6SM SCT025 BKN035 BKN080=

Latest METAR

266
SAUS80 KWBC 301000
MTRSAV
METAR KSAV 300953Z 36008KT 7SM OVC005 20/18 A2987 RMK AO2 SLP114 FIRST
AUGMENTED OBSERVATION T02000183


USA.gov is the U.S. government's official web portal to all federal, state and local government web resources and services.